CAL116 RCTP-RJFF
Flight info
| Callsign | CAL116 |
|---|---|
| Flight time | 1h 37m |
| Altitude | 37000 |
| Route | PIANO1A PIANO L3 SALMI Y743 BOLUT Y741 ATOTI Y722 ELGEP Y590 BEDAR Y591 FUE Y253 ATSAG |
| Aircraft | B738/M-SDE1E2E3FGHIM3RWY/LB1 |
Departure
| Time | 2026-02-19 14:18 |
|---|---|
| Airport | Taiwan Taoyuan International Airport (RCTP) |
Arrival
| Time | 2026-02-19 15:56 |
|---|---|
| Airport | Fukuoka Airport (RJFF) |
| Time | Latitude | Longitude | Altitude | Speed | Heading |
|---|---|---|---|---|---|
| 2026-02-19 13:53 | 25.08163 | 121.23391 | 114 ft | 0 kts | 139° |
| 2026-02-19 14:09 | 25.08165 | 121.23390 | 114 ft | 1 kts | 139° |
| 2026-02-19 14:09 | 25.08176 | 121.23380 | 114 ft | 2 kts | 139° |
| 2026-02-19 14:09 | 25.08187 | 121.23368 | 114 ft | 2 kts | 139° |
| 2026-02-19 14:09 | 25.08199 | 121.23357 | 114 ft | 2 kts | 139° |
| 2026-02-19 14:10 | 25.08210 | 121.23347 | 114 ft | 2 kts | 139° |
| 2026-02-19 14:10 | 25.08221 | 121.23336 | 114 ft | 2 kts | 139° |
| 2026-02-19 14:10 | 25.08234 | 121.23328 | 114 ft | 2 kts | 166° |
| 2026-02-19 14:10 | 25.08249 | 121.23326 | 114 ft | 2 kts | 187° |
| 2026-02-19 14:11 | 25.08263 | 121.23331 | 114 ft | 2 kts | 210° |
| 2026-02-19 14:11 | 25.08273 | 121.23338 | 114 ft | 0 kts | 227° |
| 2026-02-19 14:11 | 25.08278 | 121.23344 | 114 ft | 0 kts | 230° |
| 2026-02-19 14:11 | 25.08278 | 121.23345 | 114 ft | 0 kts | 230° |
| 2026-02-19 14:14 | 25.08278 | 121.23344 | 114 ft | 0 kts | 230° |
| 2026-02-19 14:14 | 25.08247 | 121.23305 | 114 ft | 13 kts | 228° |
| 2026-02-19 14:14 | 25.08178 | 121.23219 | 114 ft | 19 kts | 229° |
| 2026-02-19 14:15 | 25.08079 | 121.23094 | 114 ft | 22 kts | 229° |
| 2026-02-19 14:15 | 25.07971 | 121.22955 | 114 ft | 24 kts | 229° |
| 2026-02-19 14:15 | 25.07857 | 121.22810 | 114 ft | 25 kts | 229° |
| 2026-02-19 14:15 | 25.07740 | 121.22661 | 114 ft | 26 kts | 229° |
| 2026-02-19 14:16 | 25.07618 | 121.22506 | 114 ft | 26 kts | 229° |
| 2026-02-19 14:16 | 25.07382 | 121.22207 | 114 ft | 26 kts | 229° |
| 2026-02-19 14:16 | 25.07262 | 121.22053 | 114 ft | 25 kts | 229° |
| 2026-02-19 14:17 | 25.07148 | 121.21909 | 114 ft | 22 kts | 230° |
| 2026-02-19 14:17 | 25.07107 | 121.21782 | 114 ft | 18 kts | 311° |
| 2026-02-19 14:17 | 25.07203 | 121.21694 | 114 ft | 17 kts | 320° |
| 2026-02-19 14:17 | 25.07296 | 121.21629 | 114 ft | 14 kts | 7° |
| 2026-02-19 14:18 | 25.07384 | 121.21718 | 114 ft | 25 kts | 49° |
| 2026-02-19 14:18 | 25.07681 | 121.22096 | 114 ft | 106 kts | 49° |
| 2026-02-19 14:18 | 25.08328 | 121.22919 | 145 ft | 172 kts | 49° |
| 2026-02-19 14:18 | 25.09113 | 121.23915 | 1084 ft | 169 kts | 50° |
| 2026-02-19 14:19 | 25.09856 | 121.24860 | 1939 ft | 171 kts | 50° |
| 2026-02-19 14:19 | 25.10680 | 121.25919 | 2347 ft | 192 kts | 52° |
| 2026-02-19 14:19 | 25.11560 | 121.27060 | 2950 ft | 203 kts | 51° |
| 2026-02-19 14:19 | 25.12566 | 121.28316 | 3263 ft | 233 kts | 50° |
| 2026-02-19 14:20 | 25.17149 | 121.30585 | 5127 ft | 274 kts | 342° |
| 2026-02-19 14:20 | 25.18918 | 121.29872 | 6122 ft | 273 kts | 335° |
| 2026-02-19 14:21 | 25.20675 | 121.29139 | 7078 ft | 275 kts | 336° |
| 2026-02-19 14:21 | 25.22530 | 121.28543 | 8081 ft | 277 kts | 346° |
| 2026-02-19 14:21 | 25.24407 | 121.28316 | 9081 ft | 277 kts | 352° |
| 2026-02-19 14:21 | 25.26350 | 121.28242 | 9870 ft | 284 kts | 353° |
| 2026-02-19 14:22 | 25.28331 | 121.28230 | 10722 ft | 287 kts | 354° |
| 2026-02-19 14:22 | 25.30379 | 121.28237 | 11121 ft | 306 kts | 355° |
| 2026-02-19 14:22 | 25.32596 | 121.28238 | 11576 ft | 323 kts | 355° |
| 2026-02-19 14:22 | 25.34873 | 121.28239 | 12216 ft | 333 kts | 355° |
| 2026-02-19 14:23 | 25.37232 | 121.28492 | 12649 ft | 354 kts | 7° |
| 2026-02-19 14:23 | 25.39619 | 121.29542 | 13076 ft | 380 kts | 26° |
| 2026-02-19 14:23 | 25.41709 | 121.31430 | 13521 ft | 401 kts | 43° |
| 2026-02-19 14:23 | 25.43568 | 121.33770 | 14174 ft | 409 kts | 45° |
| 2026-02-19 14:24 | 25.45404 | 121.36173 | 14837 ft | 415 kts | 45° |
| 2026-02-19 14:24 | 25.49151 | 121.41140 | 16075 ft | 427 kts | 45° |
| 2026-02-19 14:24 | 25.51067 | 121.43653 | 16688 ft | 432 kts | 45° |
| 2026-02-19 14:25 | 25.53045 | 121.46222 | 17285 ft | 438 kts | 44° |
| 2026-02-19 14:25 | 25.55021 | 121.48771 | 17910 ft | 442 kts | 44° |
| 2026-02-19 14:25 | 25.57022 | 121.51341 | 18511 ft | 447 kts | 44° |
| 2026-02-19 14:25 | 25.59076 | 121.53973 | 19111 ft | 451 kts | 43° |
| 2026-02-19 14:26 | 25.61132 | 121.56599 | 19555 ft | 458 kts | 43° |
| 2026-02-19 14:26 | 25.63252 | 121.59306 | 20104 ft | 464 kts | 42° |
| 2026-02-19 14:26 | 25.65350 | 121.61991 | 20649 ft | 468 kts | 41° |
| 2026-02-19 14:26 | 25.67483 | 121.64719 | 21155 ft | 474 kts | 41° |
| 2026-02-19 14:27 | 25.69669 | 121.67518 | 21612 ft | 479 kts | 41° |
| 2026-02-19 14:27 | 25.71839 | 121.70303 | 22132 ft | 482 kts | 41° |
| 2026-02-19 14:27 | 25.74037 | 121.73126 | 22556 ft | 487 kts | 41° |
| 2026-02-19 14:27 | 25.76273 | 121.76005 | 23029 ft | 491 kts | 41° |
| 2026-02-19 14:28 | 25.78522 | 121.78857 | 23368 ft | 496 kts | 40° |
| 2026-02-19 14:28 | 25.83438 | 121.84227 | 24060 ft | 496 kts | 30° |
| 2026-02-19 14:28 | 25.86141 | 121.86586 | 24485 ft | 496 kts | 27° |
| 2026-02-19 14:29 | 25.88931 | 121.88839 | 24774 ft | 501 kts | 26° |
| 2026-02-19 14:29 | 25.91820 | 121.91086 | 25156 ft | 505 kts | 25° |
| 2026-02-19 14:29 | 25.94697 | 121.93304 | 25587 ft | 508 kts | 25° |
| 2026-02-19 14:29 | 25.97617 | 121.95561 | 25787 ft | 517 kts | 26° |
| 2026-02-19 14:30 | 26.00597 | 121.97890 | 26146 ft | 522 kts | 26° |
| 2026-02-19 14:30 | 26.03542 | 122.00221 | 26618 ft | 523 kts | 26° |
| 2026-02-19 14:30 | 26.06504 | 122.02557 | 26938 ft | 528 kts | 26° |
| 2026-02-19 14:30 | 26.09553 | 122.04938 | 27220 ft | 533 kts | 25° |
| 2026-02-19 14:31 | 26.12583 | 122.07297 | 27683 ft | 534 kts | 25° |
| 2026-02-19 14:31 | 26.15614 | 122.09656 | 28063 ft | 536 kts | 25° |
| 2026-02-19 14:31 | 26.18659 | 122.12028 | 28417 ft | 538 kts | 25° |
| 2026-02-19 14:31 | 26.21740 | 122.14430 | 28701 ft | 543 kts | 25° |
| 2026-02-19 14:32 | 26.24849 | 122.16863 | 29228 ft | 542 kts | 26° |
| 2026-02-19 14:32 | 26.31038 | 122.21716 | 30073 ft | 544 kts | 25° |
| 2026-02-19 14:32 | 26.34095 | 122.24126 | 30679 ft | 540 kts | 26° |
| 2026-02-19 14:33 | 26.37142 | 122.26529 | 31134 ft | 539 kts | 26° |
| 2026-02-19 14:33 | 26.40227 | 122.28962 | 31570 ft | 539 kts | 26° |
| 2026-02-19 14:33 | 26.43277 | 122.31364 | 31911 ft | 541 kts | 26° |
| 2026-02-19 14:33 | 26.46355 | 122.33786 | 32208 ft | 544 kts | 26° |
| 2026-02-19 14:34 | 26.49457 | 122.36230 | 32677 ft | 542 kts | 26° |
| 2026-02-19 14:34 | 26.52508 | 122.38637 | 33156 ft | 541 kts | 26° |
| 2026-02-19 14:34 | 26.55595 | 122.41077 | 33650 ft | 539 kts | 25° |
| 2026-02-19 14:34 | 26.58637 | 122.43486 | 34166 ft | 536 kts | 25° |
| 2026-02-19 14:35 | 26.61665 | 122.45886 | 34625 ft | 535 kts | 25° |
| 2026-02-19 14:35 | 26.64676 | 122.48272 | 35091 ft | 533 kts | 25° |
| 2026-02-19 14:35 | 26.67613 | 122.50603 | 35634 ft | 529 kts | 25° |
| 2026-02-19 14:35 | 26.70622 | 122.52992 | 36137 ft | 526 kts | 25° |
| 2026-02-19 14:36 | 26.73603 | 122.55360 | 36498 ft | 525 kts | 24° |
| 2026-02-19 14:36 | 26.79612 | 122.60120 | 37097 ft | 527 kts | 24° |
| 2026-02-19 14:36 | 26.82617 | 122.62501 | 37257 ft | 529 kts | 24° |
| 2026-02-19 14:37 | 26.85609 | 122.64871 | 37239 ft | 529 kts | 24° |
| 2026-02-19 14:37 | 26.91647 | 122.69677 | 37248 ft | 524 kts | 24° |
| 2026-02-19 14:38 | 26.97568 | 122.74394 | 37250 ft | 527 kts | 25° |
| 2026-02-19 14:38 | 27.03623 | 122.79215 | 37256 ft | 527 kts | 25° |
| 2026-02-19 14:39 | 27.09607 | 122.83999 | 37259 ft | 527 kts | 24° |
| 2026-02-19 14:39 | 27.15591 | 122.88793 | 37259 ft | 527 kts | 24° |
| 2026-02-19 14:40 | 27.21546 | 122.93567 | 37263 ft | 530 kts | 24° |
| 2026-02-19 14:40 | 27.30212 | 123.01295 | 37264 ft | 537 kts | 30° |
| 2026-02-19 14:41 | 27.35876 | 123.06885 | 37264 ft | 541 kts | 31° |
| 2026-02-19 14:41 | 27.41543 | 123.12497 | 37259 ft | 540 kts | 31° |
| 2026-02-19 14:42 | 27.47217 | 123.18047 | 37267 ft | 541 kts | 30° |
| 2026-02-19 14:42 | 27.52951 | 123.23589 | 37267 ft | 542 kts | 29° |
| 2026-02-19 14:43 | 27.58680 | 123.29113 | 37269 ft | 542 kts | 29° |
| 2026-02-19 14:43 | 27.64409 | 123.34636 | 37268 ft | 542 kts | 29° |
| 2026-02-19 14:44 | 27.73060 | 123.42986 | 37272 ft | 545 kts | 29° |
| 2026-02-19 14:45 | 27.78795 | 123.48540 | 37275 ft | 543 kts | 29° |
| 2026-02-19 14:45 | 27.84540 | 123.54108 | 37275 ft | 545 kts | 28° |
| 2026-02-19 14:46 | 27.90268 | 123.59678 | 37277 ft | 543 kts | 29° |
| 2026-02-19 14:46 | 27.96015 | 123.65266 | 37271 ft | 544 kts | 30° |
| 2026-02-19 14:47 | 28.01754 | 123.70846 | 37273 ft | 546 kts | 30° |
| 2026-02-19 14:47 | 28.07504 | 123.76459 | 37276 ft | 544 kts | 30° |
| 2026-02-19 14:48 | 28.13241 | 123.82066 | 37281 ft | 546 kts | 29° |
| 2026-02-19 14:48 | 28.21854 | 123.90488 | 37283 ft | 546 kts | 29° |
| 2026-02-19 14:49 | 28.27612 | 123.96154 | 37284 ft | 551 kts | 31° |
| 2026-02-19 14:49 | 28.33042 | 124.02437 | 37277 ft | 561 kts | 39° |
| 2026-02-19 14:50 | 28.37947 | 124.09322 | 37280 ft | 567 kts | 44° |
| 2026-02-19 14:50 | 28.42643 | 124.16554 | 37290 ft | 572 kts | 45° |
| 2026-02-19 14:51 | 28.47321 | 124.23912 | 37293 ft | 573 kts | 45° |
| 2026-02-19 14:51 | 28.52003 | 124.31241 | 37288 ft | 571 kts | 45° |
| 2026-02-19 14:52 | 28.58954 | 124.41994 | 37277 ft | 571 kts | 45° |
| 2026-02-19 14:53 | 28.63705 | 124.49303 | 37279 ft | 574 kts | 44° |
| 2026-02-19 14:53 | 28.68426 | 124.56585 | 37271 ft | 572 kts | 44° |
| 2026-02-19 14:54 | 28.73230 | 124.63865 | 37266 ft | 568 kts | 41° |
| 2026-02-19 14:54 | 28.75782 | 124.67168 | 37265 ft | 555 kts | 33° |
| 2026-02-19 14:54 | 28.78746 | 124.69952 | 37280 ft | 535 kts | 19° |
| 2026-02-19 14:54 | 28.81925 | 124.71994 | 37278 ft | 516 kts | 9° |
| 2026-02-19 14:55 | 28.85188 | 124.73593 | 37272 ft | 507 kts | 5° |
| 2026-02-19 14:55 | 28.91715 | 124.76318 | 37274 ft | 498 kts | 2° |
| 2026-02-19 14:56 | 28.98300 | 124.78841 | 37266 ft | 498 kts | 1° |
| 2026-02-19 14:56 | 29.08150 | 124.82639 | 37271 ft | 494 kts | 2° |
| 2026-02-19 14:57 | 29.14687 | 124.85215 | 37281 ft | 501 kts | 2° |
| 2026-02-19 14:57 | 29.21308 | 124.87841 | 37271 ft | 504 kts | 2° |
| 2026-02-19 14:58 | 29.27910 | 124.90498 | 37247 ft | 500 kts | 2° |
| 2026-02-19 14:58 | 29.34517 | 124.93152 | 37288 ft | 503 kts | 1° |
| 2026-02-19 14:59 | 29.41116 | 124.95818 | 37267 ft | 497 kts | 2° |
| 2026-02-19 14:59 | 29.47673 | 124.98451 | 37205 ft | 503 kts | 1° |
| 2026-02-19 15:00 | 29.57637 | 125.02462 | 37272 ft | 499 kts | 2° |
| 2026-02-19 15:01 | 29.64171 | 125.05114 | 37264 ft | 501 kts | 1° |
| 2026-02-19 15:01 | 29.70750 | 125.07767 | 37266 ft | 504 kts | 1° |
| 2026-02-19 15:02 | 29.77425 | 125.10456 | 37257 ft | 507 kts | 2° |
| 2026-02-19 15:02 | 29.84090 | 125.13167 | 37290 ft | 507 kts | 1° |
| 2026-02-19 15:03 | 29.90688 | 125.15865 | 37293 ft | 500 kts | 1° |
| 2026-02-19 15:03 | 29.97251 | 125.18533 | 37294 ft | 502 kts | 1° |
| 2026-02-19 15:04 | 30.03897 | 125.21227 | 37286 ft | 509 kts | 1° |
| 2026-02-19 15:04 | 30.13908 | 125.25327 | 37304 ft | 505 kts | 1° |
| 2026-02-19 15:05 | 30.20508 | 125.28048 | 37293 ft | 503 kts | 1° |
| 2026-02-19 15:05 | 30.27126 | 125.30761 | 37283 ft | 506 kts | 1° |
| 2026-02-19 15:06 | 30.33823 | 125.33501 | 37299 ft | 509 kts | 1° |
| 2026-02-19 15:06 | 30.40465 | 125.36237 | 37300 ft | 507 kts | 1° |
| 2026-02-19 15:07 | 30.47145 | 125.38997 | 37286 ft | 508 kts | 1° |
| 2026-02-19 15:07 | 30.53721 | 125.41727 | 37277 ft | 500 kts | 1° |
| 2026-02-19 15:08 | 30.63630 | 125.45818 | 37269 ft | 504 kts | 1° |
| 2026-02-19 15:09 | 30.70265 | 125.48540 | 37264 ft | 509 kts | 1° |
| 2026-02-19 15:09 | 30.76881 | 125.51302 | 37271 ft | 506 kts | 1° |
| 2026-02-19 15:10 | 30.83542 | 125.54069 | 37258 ft | 506 kts | 2° |
| 2026-02-19 15:10 | 30.90135 | 125.56827 | 37265 ft | 501 kts | 1° |
| 2026-02-19 15:11 | 30.96721 | 125.59573 | 37256 ft | 503 kts | 1° |
| 2026-02-19 15:11 | 31.03366 | 125.62338 | 37257 ft | 504 kts | 1° |
| 2026-02-19 15:12 | 31.09895 | 125.65075 | 37252 ft | 501 kts | 2° |
| 2026-02-19 15:12 | 31.19799 | 125.69215 | 37259 ft | 505 kts | 2° |
| 2026-02-19 15:13 | 31.26462 | 125.71999 | 37252 ft | 508 kts | 2° |
| 2026-02-19 15:13 | 31.33153 | 125.74813 | 37257 ft | 507 kts | 3° |
| 2026-02-19 15:14 | 31.39749 | 125.77601 | 37265 ft | 507 kts | 2° |
| 2026-02-19 15:14 | 31.46324 | 125.80387 | 37262 ft | 499 kts | 3° |
| 2026-02-19 15:15 | 31.52868 | 125.83151 | 37273 ft | 504 kts | 3° |
| 2026-02-19 15:15 | 31.59528 | 125.85941 | 37276 ft | 508 kts | 3° |
| 2026-02-19 15:16 | 31.69457 | 125.90200 | 37272 ft | 506 kts | 7° |
| 2026-02-19 15:16 | 31.72651 | 125.92065 | 37276 ft | 530 kts | 18° |
| 2026-02-19 15:17 | 31.75658 | 125.94784 | 37280 ft | 558 kts | 33° |
| 2026-02-19 15:17 | 31.78171 | 125.98384 | 37275 ft | 579 kts | 50° |
| 2026-02-19 15:17 | 31.79979 | 126.02627 | 37279 ft | 594 kts | 66° |
| 2026-02-19 15:18 | 31.82357 | 126.12050 | 37274 ft | 601 kts | 73° |
| 2026-02-19 15:18 | 31.84375 | 126.21499 | 37271 ft | 600 kts | 75° |
| 2026-02-19 15:19 | 31.86342 | 126.31019 | 37270 ft | 599 kts | 75° |
| 2026-02-19 15:19 | 31.88324 | 126.40469 | 37268 ft | 598 kts | 74° |
| 2026-02-19 15:20 | 31.90345 | 126.49985 | 37268 ft | 600 kts | 74° |
| 2026-02-19 15:20 | 31.93444 | 126.64184 | 37260 ft | 598 kts | 72° |
| 2026-02-19 15:21 | 31.95510 | 126.73487 | 37263 ft | 598 kts | 74° |
| 2026-02-19 15:21 | 31.97611 | 126.82989 | 37261 ft | 601 kts | 73° |
| 2026-02-19 15:22 | 32.00723 | 126.97209 | 37254 ft | 599 kts | 74° |
| 2026-02-19 15:23 | 32.02785 | 127.06683 | 37262 ft | 602 kts | 72° |
| 2026-02-19 15:23 | 32.05289 | 127.16037 | 37248 ft | 599 kts | 65° |
| 2026-02-19 15:24 | 32.11940 | 127.33920 | 37223 ft | 590 kts | 59° |
| 2026-02-19 15:25 | 32.15427 | 127.42751 | 37256 ft | 592 kts | 60° |
| 2026-02-19 15:25 | 32.18792 | 127.51516 | 37240 ft | 592 kts | 60° |
| 2026-02-19 15:26 | 32.22136 | 127.60417 | 37225 ft | 593 kts | 62° |
| 2026-02-19 15:26 | 32.25442 | 127.69312 | 37223 ft | 589 kts | 63° |
| 2026-02-19 15:27 | 32.28722 | 127.78181 | 37228 ft | 589 kts | 62° |
| 2026-02-19 15:27 | 32.32003 | 127.87067 | 37235 ft | 588 kts | 61° |
| 2026-02-19 15:28 | 32.35260 | 127.95890 | 37237 ft | 591 kts | 62° |
| 2026-02-19 15:28 | 32.40153 | 128.09169 | 37246 ft | 588 kts | 62° |
| 2026-02-19 15:29 | 32.43446 | 128.18117 | 37225 ft | 588 kts | 62° |
| 2026-02-19 15:30 | 32.48305 | 128.31393 | 37228 ft | 585 kts | 62° |
| 2026-02-19 15:30 | 32.51542 | 128.40266 | 37230 ft | 590 kts | 62° |
| 2026-02-19 15:30 | 32.53164 | 128.44725 | 36985 ft | 585 kts | 62° |
| 2026-02-19 15:31 | 32.54773 | 128.49161 | 36615 ft | 581 kts | 63° |
| 2026-02-19 15:31 | 32.57951 | 128.57925 | 35381 ft | 584 kts | 62° |
| 2026-02-19 15:31 | 32.59549 | 128.62331 | 34641 ft | 588 kts | 63° |
| 2026-02-19 15:32 | 32.61175 | 128.66817 | 33800 ft | 591 kts | 63° |
| 2026-02-19 15:32 | 32.64417 | 128.75636 | 32770 ft | 585 kts | 61° |
| 2026-02-19 15:32 | 32.66298 | 128.79890 | 32168 ft | 580 kts | 54° |
| 2026-02-19 15:33 | 32.71500 | 128.86803 | 31578 ft | 537 kts | 31° |
| 2026-02-19 15:33 | 32.74403 | 128.89571 | 31190 ft | 528 kts | 28° |
| 2026-02-19 15:33 | 32.77298 | 128.92139 | 31017 ft | 515 kts | 27° |
| 2026-02-19 15:34 | 32.83020 | 128.96992 | 30229 ft | 500 kts | 26° |
| 2026-02-19 15:34 | 32.85872 | 128.99382 | 29651 ft | 497 kts | 26° |
| 2026-02-19 15:34 | 32.88677 | 129.01744 | 28956 ft | 497 kts | 27° |
| 2026-02-19 15:35 | 32.91539 | 129.04172 | 28058 ft | 501 kts | 27° |
| 2026-02-19 15:35 | 32.94355 | 129.06578 | 27207 ft | 503 kts | 28° |
| 2026-02-19 15:35 | 32.97184 | 129.09015 | 26417 ft | 503 kts | 28° |
| 2026-02-19 15:35 | 32.99997 | 129.11459 | 25881 ft | 498 kts | 29° |
| 2026-02-19 15:36 | 33.02772 | 129.13887 | 25329 ft | 493 kts | 30° |
| 2026-02-19 15:36 | 33.08239 | 129.18690 | 24261 ft | 482 kts | 30° |
| 2026-02-19 15:36 | 33.10925 | 129.21056 | 23754 ft | 475 kts | 30° |
| 2026-02-19 15:37 | 33.13564 | 129.23369 | 23153 ft | 472 kts | 30° |
| 2026-02-19 15:37 | 33.16185 | 129.25671 | 22436 ft | 472 kts | 31° |
| 2026-02-19 15:37 | 33.18822 | 129.27985 | 21778 ft | 470 kts | 31° |
| 2026-02-19 15:37 | 33.21453 | 129.30302 | 21129 ft | 466 kts | 32° |
| 2026-02-19 15:38 | 33.24034 | 129.32575 | 20559 ft | 460 kts | 33° |
| 2026-02-19 15:38 | 33.26567 | 129.34817 | 20269 ft | 447 kts | 32° |
| 2026-02-19 15:38 | 33.29024 | 129.36987 | 20015 ft | 435 kts | 31° |
| 2026-02-19 15:38 | 33.31427 | 129.39099 | 19724 ft | 424 kts | 32° |
| 2026-02-19 15:39 | 33.33755 | 129.41177 | 19536 ft | 411 kts | 32° |
| 2026-02-19 15:39 | 33.36018 | 129.43190 | 19346 ft | 398 kts | 32° |
| 2026-02-19 15:39 | 33.38209 | 129.45131 | 19125 ft | 387 kts | 32° |
| 2026-02-19 15:39 | 33.40350 | 129.47021 | 18838 ft | 379 kts | 32° |
| 2026-02-19 15:40 | 33.42483 | 129.48898 | 18397 ft | 375 kts | 32° |
| 2026-02-19 15:40 | 33.46626 | 129.52557 | 17448 ft | 370 kts | 31° |
| 2026-02-19 15:41 | 33.50728 | 129.56184 | 16504 ft | 364 kts | 32° |
| 2026-02-19 15:41 | 33.52763 | 129.58000 | 16065 ft | 361 kts | 32° |
| 2026-02-19 15:41 | 33.54777 | 129.59788 | 15556 ft | 358 kts | 32° |
| 2026-02-19 15:41 | 33.56781 | 129.61540 | 15062 ft | 355 kts | 32° |
| 2026-02-19 15:42 | 33.58749 | 129.63277 | 14693 ft | 349 kts | 33° |
| 2026-02-19 15:42 | 33.60677 | 129.65012 | 14170 ft | 347 kts | 34° |
| 2026-02-19 15:42 | 33.62601 | 129.66745 | 13581 ft | 347 kts | 34° |
| 2026-02-19 15:42 | 33.64558 | 129.68500 | 12719 ft | 355 kts | 34° |
| 2026-02-19 15:43 | 33.66534 | 129.70267 | 11887 ft | 361 kts | 34° |
| 2026-02-19 15:43 | 33.68532 | 129.72163 | 10929 ft | 372 kts | 37° |
| 2026-02-19 15:43 | 33.70524 | 129.74214 | 9996 ft | 379 kts | 39° |
| 2026-02-19 15:43 | 33.72417 | 129.76247 | 9960 ft | 358 kts | 39° |
| 2026-02-19 15:44 | 33.74216 | 129.78194 | 9979 ft | 338 kts | 39° |
| 2026-02-19 15:44 | 33.77548 | 129.81761 | 9982 ft | 304 kts | 38° |
| 2026-02-19 15:44 | 33.79116 | 129.83415 | 9784 ft | 296 kts | 37° |
| 2026-02-19 15:45 | 33.80673 | 129.85040 | 9353 ft | 297 kts | 37° |
| 2026-02-19 15:45 | 33.82217 | 129.86650 | 8988 ft | 295 kts | 37° |
| 2026-02-19 15:45 | 33.83639 | 129.88454 | 8609 ft | 297 kts | 56° |
| 2026-02-19 15:45 | 33.84319 | 129.90762 | 8258 ft | 298 kts | 84° |
| 2026-02-19 15:46 | 33.84214 | 129.93224 | 7904 ft | 295 kts | 98° |
| 2026-02-19 15:46 | 33.83890 | 129.95668 | 7564 ft | 293 kts | 99° |
| 2026-02-19 15:46 | 33.83559 | 129.98068 | 7217 ft | 291 kts | 99° |
| 2026-02-19 15:46 | 33.83258 | 130.00468 | 6844 ft | 290 kts | 97° |
| 2026-02-19 15:47 | 33.82986 | 130.02835 | 6572 ft | 285 kts | 97° |
| 2026-02-19 15:47 | 33.82730 | 130.05183 | 6353 ft | 278 kts | 97° |
| 2026-02-19 15:47 | 33.82487 | 130.07455 | 6114 ft | 273 kts | 97° |
| 2026-02-19 15:47 | 33.82247 | 130.09685 | 5858 ft | 269 kts | 97° |
| 2026-02-19 15:48 | 33.82005 | 130.11916 | 5600 ft | 265 kts | 97° |
| 2026-02-19 15:48 | 33.81533 | 130.16232 | 5095 ft | 259 kts | 97° |
| 2026-02-19 15:48 | 33.81299 | 130.18368 | 4841 ft | 256 kts | 98° |
| 2026-02-19 15:49 | 33.81070 | 130.20468 | 4585 ft | 253 kts | 97° |
| 2026-02-19 15:49 | 33.80839 | 130.22572 | 4328 ft | 251 kts | 97° |
| 2026-02-19 15:49 | 33.80616 | 130.24617 | 4092 ft | 248 kts | 97° |
| 2026-02-19 15:49 | 33.80394 | 130.26637 | 3878 ft | 242 kts | 98° |
| 2026-02-19 15:50 | 33.80141 | 130.28657 | 3580 ft | 240 kts | 102° |
| 2026-02-19 15:50 | 33.79652 | 130.30518 | 3466 ft | 228 kts | 118° |
| 2026-02-19 15:50 | 33.78658 | 130.31847 | 3400 ft | 209 kts | 153° |
| 2026-02-19 15:50 | 33.77365 | 130.32561 | 3237 ft | 202 kts | 161° |
| 2026-02-19 15:51 | 33.76041 | 130.33162 | 3029 ft | 199 kts | 162° |
| 2026-02-19 15:51 | 33.74805 | 130.33888 | 2808 ft | 201 kts | 153° |
| 2026-02-19 15:51 | 33.73618 | 130.34782 | 2623 ft | 198 kts | 150° |
| 2026-02-19 15:51 | 33.72461 | 130.35628 | 2486 ft | 193 kts | 152° |
| 2026-02-19 15:52 | 33.71330 | 130.36429 | 2503 ft | 183 kts | 153° |
| 2026-02-19 15:52 | 33.69189 | 130.37874 | 2274 ft | 164 kts | 155° |
| 2026-02-19 15:52 | 33.68247 | 130.38492 | 2132 ft | 145 kts | 155° |
| 2026-02-19 15:53 | 33.67350 | 130.39061 | 1898 ft | 147 kts | 156° |
| 2026-02-19 15:53 | 33.66460 | 130.39690 | 1662 ft | 150 kts | 153° |
| 2026-02-19 15:53 | 33.65548 | 130.40321 | 1429 ft | 150 kts | 153° |
| 2026-02-19 15:53 | 33.64645 | 130.40938 | 1195 ft | 148 kts | 152° |
| 2026-02-19 15:54 | 33.63759 | 130.41554 | 957 ft | 147 kts | 153° |
| 2026-02-19 15:54 | 33.62864 | 130.42156 | 731 ft | 147 kts | 153° |
| 2026-02-19 15:54 | 33.61079 | 130.43378 | 380 ft | 147 kts | 151° |
| 2026-02-19 15:55 | 33.60180 | 130.43988 | 175 ft | 148 kts | 151° |
| 2026-02-19 15:55 | 33.59282 | 130.44598 | 24 ft | 148 kts | 150° |
| 2026-02-19 15:55 | 33.58447 | 130.45167 | 26 ft | 121 kts | 149° |
| 2026-02-19 15:55 | 33.57868 | 130.45566 | 29 ft | 67 kts | 150° |
| 2026-02-19 15:56 | 33.57597 | 130.45749 | 17 ft | 30 kts | 149° |
| 2026-02-19 15:56 | 33.57447 | 130.45664 | 15 ft | 16 kts | 265° |
| 2026-02-19 15:56 | 33.57513 | 130.45579 | 17 ft | 13 kts | 329° |
| 2026-02-19 15:57 | 33.57589 | 130.45526 | 19 ft | 11 kts | 329° |
| 2026-02-19 15:57 | 33.57691 | 130.45458 | 23 ft | 23 kts | 330° |
| 2026-02-19 15:57 | 33.57799 | 130.45274 | 30 ft | 12 kts | 246° |
| 2026-02-19 15:58 | 33.57836 | 130.45189 | 31 ft | 12 kts | 327° |
| 2026-02-19 15:58 | 33.57928 | 130.45126 | 30 ft | 19 kts | 330° |
| 2026-02-19 15:58 | 33.58066 | 130.45030 | 28 ft | 25 kts | 330° |
| 2026-02-19 15:58 | 33.58223 | 130.44922 | 26 ft | 26 kts | 329° |
| 2026-02-19 15:59 | 33.58380 | 130.44818 | 25 ft | 24 kts | 327° |
| 2026-02-19 15:59 | 33.58481 | 130.44691 | 27 ft | 7 kts | 302° |
| 2026-02-19 15:59 | 33.58491 | 130.44685 | 27 ft | 0 kts | 2° |
| 2026-02-19 15:59 | 33.58517 | 130.44679 | 28 ft | 13 kts | 333° |
| 2026-02-19 16:00 | 33.58508 | 130.44589 | 28 ft | 10 kts | 239° |
| 2026-02-19 16:00 | 33.58495 | 130.44565 | 28 ft | 0 kts | 240° |